SBOSBO KEM / EFKE
Speedbird OnlineSpeedbird Online KEM / EFKE

Kemi-Tornio Airport
03:28 1°C

Location Kemi, Finland
Latitude: 65.778701782227
Longitude: 24.582099914551
Local Time 03:28 on 26 May 2024
UTC +3 hours (Europe/Helsinki)
Currency £1 equals EUR 1.17
METAR EFKE 252350Z AUTO VRB01KT CAVOK 01/M00 Q1030
TAF
Weather As Of 26 May 2024 03:28
Description Clear sky
Wind 2 km/h from North (0°)
Cloud Cover 0%
Precipitation Rain: none, Snow: none
Sunrise 03:02
Sunset 23:35
Rotations During the last 90 days there were
23 flights from KOK
1 flights from HEL
11 flights to HEL
1 flights to KOK
Web Airport Website | Wikipedia
Codes IATA: KEM
ICAO: EFKE
Altitude 19 Meter / 61 Feet
Distance 2,099 KM / 1,304 Miles
from London.
Runways
RunwayLength (m)Surface
182503Asphalt
362503Asphalt
Radio
TypeDescriptionFrequency
ATISATIS123.15
TWRTWR119.4
Live ATC



Support Speedbird Online

© 2017-2024 Speedbird Online